Time;durP1;ratioP1;P1;durP2;ratioP2;P2;SDS_P1;SDS_P2;PMS_P1;PMS_P2;Temp;Humidity;BMP_temperature;BMP_pressure;BME280_temperature;BME280_humidity;BME280_pressure;Samples;Min_cycle;Max_cycle;Signal;HPM_P1;HPM_P2
2023/08/19 00:01:35;;;;;;;9.25;8.02;;;24.90;99.90;;;;;;5091191;28;20028;-61
2023/08/19 00:04:00;;;;;;;8.63;7.88;;;24.70;99.90;;;;;;5091246;28;20063;-60
2023/08/19 00:06:41;;;;;;;9.10;8.20;;;24.60;99.90;;;;;;5090990;28;20024;-61
2023/08/19 00:09:08;;;;;;;8.70;7.80;;;24.60;99.90;;;;;;5091111;28;20040;-60
2023/08/19 00:11:35;;;;;;;9.93;8.30;;;24.60;99.90;;;;;;5091443;28;20115;-61
2023/08/19 00:14:03;;;;;;;9.13;8.23;;;24.40;99.90;;;;;;5091046;28;20053;-61
2023/08/19 00:16:29;;;;;;;8.90;8.07;;;24.40;99.90;;;;;;5091215;28;20044;-61
2023/08/19 00:18:56;;;;;;;9.43;8.13;;;24.30;99.90;;;;;;5090919;28;20107;-61
2023/08/19 00:21:21;;;;;;;9.35;8.35;;;24.20;99.90;;;;;;5091145;28;20031;-61
2023/08/19 00:23:47;;;;;;;8.52;7.72;;;24.20;99.90;;;;;;5091162;28;20086;-61
2023/08/19 00:26:13;;;;;;;9.85;7.90;;;24.10;99.90;;;;;;5090937;28;20066;-61
2023/08/19 00:28:39;;;;;;;9.30;8.30;;;24.20;99.90;;;;;;5091158;28;20028;-61
2023/08/19 00:31:06;;;;;;;10.63;7.60;;;24.20;99.90;;;;;;5090932;28;20040;-61
2023/08/19 00:33:32;;;;;;;8.77;7.90;;;24.30;99.90;;;;;;5090960;28;20446;-61
2023/08/19 00:35:57;;;;;;;9.63;7.43;;;24.60;99.90;;;;;;5090635;28;20024;-61
2023/08/19 00:38:23;;;;;;;8.82;7.30;;;24.70;99.90;;;;;;5091241;28;20032;-60
2023/08/19 00:40:49;;;;;;;9.02;7.97;;;24.80;99.90;;;;;;5090958;28;20139;-61
2023/08/19 00:43:14;;;;;;;8.75;7.20;;;24.90;99.90;;;;;;5090998;28;20035;-60
2023/08/19 00:45:49;;;;;;;7.55;6.90;;;24.90;99.90;;;;;;5090956;28;20498;-60
2023/08/19 00:48:18;;;;;;;8.50;7.10;;;24.90;99.90;;;;;;5090705;28;20028;-61
2023/08/19 00:50:44;;;;;;;8.00;7.03;;;25.00;99.90;;;;;;5090595;28;20445;-61
2023/08/19 00:53:13;;;;;;;8.90;7.10;;;25.00;99.90;;;;;;5090880;28;20059;-61
2023/08/19 00:55:39;;;;;;;8.40;6.97;;;25.00;99.90;;;;;;5093359;28;20036;-61
2023/08/19 00:58:07;;;;;;;8.38;7.57;;;25.00;99.90;;;;;;5094468;28;20396;-60
2023/08/19 01:00:34;;;;;;;8.98;7.40;;;25.00;99.90;;;;;;5094731;28;20032;-60
2023/08/19 01:03:00;;;;;;;8.30;7.43;;;24.90;99.90;;;;;;5094432;28;20035;-60
2023/08/19 01:05:50;;;;;;;7.97;6.70;;;24.90;99.90;;;;;;5094176;28;20039;-61
2023/08/19 01:08:22;;;;;;;7.95;6.85;;;24.80;99.90;;;;;;5094500;28;20024;-60
2023/08/19 01:11:03;;;;;;;8.23;6.50;;;24.80;99.90;;;;;;5094331;28;20036;-62
2023/08/19 01:13:38;;;;;;;7.03;6.43;;;24.80;99.90;;;;;;5094306;28;20028;-60
2023/08/19 01:16:26;;;;;;;7.28;5.88;;;24.60;99.90;;;;;;5094112;28;20111;-60
2023/08/19 01:18:54;;;;;;;6.70;6.03;;;24.50;99.90;;;;;;5093876;28;20103;-61
2023/08/19 01:21:21;;;;;;;7.22;6.07;;;24.30;99.90;;;;;;5094682;28;20023;-61
2023/08/19 01:23:49;;;;;;;6.80;6.10;;;24.20;99.90;;;;;;5094312;28;20024;-61
2023/08/19 01:26:16;;;;;;;6.70;5.70;;;24.10;99.90;;;;;;5094007;28;20447;-61
2023/08/19 01:28:42;;;;;;;6.65;6.05;;;24.00;99.90;;;;;;5094136;28;20525;-61
2023/08/19 01:31:07;;;;;;;7.63;6.07;;;24.00;99.90;;;;;;5094346;28;20028;-60
2023/08/19 01:33:34;;;;;;;8.35;6.40;;;23.90;99.90;;;;;;5093715;28;20205;-60
2023/08/19 01:36:15;;;;;;;7.25;5.75;;;23.80;99.90;;;;;;5094185;28;20048;-60
2023/08/19 01:39:05;;;;;;;6.65;5.88;;;23.70;99.90;;;;;;5093875;28;20400;-61
2023/08/19 01:41:32;;;;;;;8.10;5.30;;;23.70;99.90;;;;;;5093863;28;20480;-61
2023/08/19 01:43:59;;;;;;;7.35;6.13;;;23.70;99.90;;;;;;5093853;28;20028;-61
2023/08/19 01:46:25;;;;;;;6.80;6.10;;;23.70;99.90;;;;;;5093805;28;20444;-61
2023/08/19 01:48:51;;;;;;;6.70;6.20;;;23.70;99.90;;;;;;5093609;28;20013;-60
2023/08/19 01:51:17;;;;;;;6.90;6.10;;;23.70;99.90;;;;;;5093668;28;20500;-60
2023/08/19 01:53:42;;;;;;;6.47;5.78;;;23.70;99.90;;;;;;5093602;28;20377;-59
2023/08/19 01:56:09;;;;;;;8.15;5.80;;;24.00;99.90;;;;;;5093447;28;20467;-61
2023/08/19 01:58:35;;;;;;;5.45;4.93;;;24.10;99.90;;;;;;5093513;28;20056;-60
2023/08/19 02:01:01;;;;;;;6.20;5.60;;;24.30;99.90;;;;;;5093624;28;20059;-60
2023/08/19 02:03:26;;;;;;;6.13;4.88;;;24.50;99.90;;;;;;5093163;28;20031;-60
2023/08/19 02:05:52;;;;;;;6.38;5.15;;;24.60;99.90;;;;;;5092939;28;20036;-61
2023/08/19 02:08:18;;;;;;;5.82;5.15;;;24.60;99.90;;;;;;5092964;28;20420;-60
2023/08/19 02:10:44;;;;;;;6.40;5.03;;;24.60;99.90;;;;;;5093091;28;20097;-60
2023/08/19 02:13:10;;;;;;;6.45;4.93;;;24.60;99.90;;;;;;5093363;28;20111;-61
2023/08/19 02:15:36;;;;;;;5.50;4.72;;;24.50;99.90;;;;;;5093162;28;20031;-61
2023/08/19 02:18:01;;;;;;;5.93;4.90;;;24.50;99.90;;;;;;5093075;28;20031;-59
2023/08/19 02:20:28;;;;;;;5.88;4.90;;;24.40;99.90;;;;;;5092928;28;20036;-60
2023/08/19 02:22:54;;;;;;;5.95;4.90;;;24.50;99.90;;;;;;5092958;28;20028;-60
2023/08/19 02:25:20;;;;;;;6.57;5.13;;;24.40;99.90;;;;;;5092790;28;20424;-60
2023/08/19 02:27:45;;;;;;;6.15;5.45;;;24.40;99.90;;;;;;5092880;28;20364;-61
2023/08/19 02:30:11;;;;;;;6.28;4.80;;;24.50;99.90;;;;;;5092769;28;20515;-61
2023/08/19 02:32:40;;;;;;;6.28;4.88;;;24.20;99.90;;;;;;5092474;28;20028;-60
2023/08/19 02:35:07;;;;;;;5.53;5.03;;;24.20;99.90;;;;;;5093216;28;20028;-60
2023/08/19 02:37:32;;;;;;;6.75;5.50;;;24.00;99.90;;;;;;5092615;28;20116;-60
2023/08/19 02:39:58;;;;;;;8.05;5.70;;;23.80;99.90;;;;;;5092821;28;20111;-61
2023/08/19 02:42:24;;;;;;;6.88;6.20;;;23.60;99.90;;;;;;5074889;28;20059;-61
2023/08/19 02:44:49;;;;;;;6.38;5.68;;;23.50;99.90;;;;;;5092499;28;20047;-60
2023/08/19 02:47:15;;;;;;;6.75;6.07;;;23.40;99.90;;;;;;5092227;28;20100;-61
2023/08/19 02:49:40;;;;;;;6.20;5.65;;;23.40;99.90;;;;;;5092453;28;20450;-61
2023/08/19 02:52:06;;;;;;;6.53;5.72;;;23.30;99.90;;;;;;5092438;28;20020;-60
2023/08/19 02:54:32;;;;;;;7.65;5.93;;;23.30;99.90;;;;;;5092927;28;20115;-61
2023/08/19 02:56:58;;;;;;;6.40;5.80;;;23.20;99.90;;;;;;5092385;28;20031;-60
2023/08/19 02:59:23;;;;;;;6.93;5.65;;;23.10;99.90;;;;;;5092392;28;20020;-61
2023/08/19 03:01:49;;;;;;;11.45;6.03;;;23.20;99.90;;;;;;5092415;28;20476;-61
2023/08/19 03:04:14;;;;;;;6.95;6.28;;;23.10;99.90;;;;;;5091891;28;20032;-60
2023/08/19 03:06:41;;;;;;;6.40;5.80;;;23.10;99.90;;;;;;5092640;28;20020;-61
2023/08/19 03:09:07;;;;;;;10.50;5.82;;;23.10;99.90;;;;;;5092071;28;20029;-60
2023/08/19 03:11:33;;;;;;;8.70;6.00;;;23.00;99.90;;;;;;5092199;28;20024;-61
2023/08/19 03:13:59;;;;;;;7.13;6.35;;;23.00;99.90;;;;;;5090921;28;20028;-61
2023/08/19 03:16:25;;;;;;;7.47;6.10;;;23.10;99.90;;;;;;5091776;28;20057;-60
2023/08/19 03:18:50;;;;;;;8.00;5.68;;;23.40;99.90;;;;;;5091549;28;20016;-61
2023/08/19 03:21:16;;;;;;;6.78;5.72;;;23.60;99.90;;;;;;5092342;28;20027;-60
2023/08/19 03:23:42;;;;;;;6.03;5.43;;;23.70;99.90;;;;;;5091814;28;20079;-61
2023/08/19 03:26:07;;;;;;;7.28;5.88;;;23.80;99.90;;;;;;5091649;28;20043;-60
2023/08/19 03:28:33;;;;;;;6.15;5.60;;;23.80;99.90;;;;;;5091884;28;20024;-60
2023/08/19 03:30:59;;;;;;;7.07;5.57;;;23.90;99.90;;;;;;5091411;28;20040;-60
2023/08/19 03:33:25;;;;;;;7.05;5.82;;;23.80;99.90;;;;;;5091747;28;20028;-60
2023/08/19 03:35:50;;;;;;;6.20;5.60;;;23.70;99.90;;;;;;5092088;28;20381;-61
2023/08/19 03:38:16;;;;;;;6.78;6.18;;;23.70;99.90;;;;;;5091569;28;20449;-61
2023/08/19 03:40:42;;;;;;;5.72;5.22;;;23.70;99.90;;;;;;5091729;28;20034;-60
2023/08/19 03:43:08;;;;;;;6.93;5.50;;;23.70;99.90;;;;;;5091472;28;20032;-59
2023/08/19 03:45:34;;;;;;;6.22;5.63;;;23.60;99.90;;;;;;5091282;28;20124;-61
2023/08/19 03:48:00;;;;;;;6.53;5.80;;;23.60;99.90;;;;;;5091498;28;20524;-60
2023/08/19 03:50:26;;;;;;;7.22;5.43;;;23.50;99.90;;;;;;5091346;28;20036;-61
2023/08/19 03:52:51;;;;;;;6.47;5.78;;;23.60;99.90;;;;;;5091893;28;20732;-60
2023/08/19 03:55:17;;;;;;;7.15;5.72;;;23.60;99.90;;;;;;5091504;28;20032;-61
2023/08/19 03:57:43;;;;;;;10.10;5.88;;;23.40;99.90;;;;;;5091267;28;20480;-60
2023/08/19 04:00:10;;;;;;;6.95;5.72;;;23.20;99.90;;;;;;5090921;28;20024;-60
2023/08/19 04:02:35;;;;;;;8.23;6.30;;;23.10;99.90;;;;;;5091219;28;20024;-60
2023/08/19 04:05:06;;;;;;;9.73;6.03;;;23.00;99.90;;;;;;5091333;28;20032;-61
2023/08/19 04:07:31;;;;;;;7.32;5.40;;;22.90;99.90;;;;;;5091643;28;20028;-61
2023/08/19 04:09:57;;;;;;;6.82;4.97;;;22.90;99.90;;;;;;5091224;28;20028;-61
2023/08/19 04:12:24;;;;;;;6.45;4.53;;;22.90;99.90;;;;;;5091106;28;20081;-61
2023/08/19 04:14:50;;;;;;;6.10;4.50;;;22.90;99.90;;;;;;5090660;28;20024;-61
2023/08/19 04:17:16;;;;;;;6.35;4.38;;;23.00;99.90;;;;;;5091226;28;20036;-61
2023/08/19 04:19:42;;;;;;;4.28;3.88;;;23.00;99.90;;;;;;5091097;28;20556;-60
2023/08/19 04:22:09;;;;;;;6.80;4.40;;;23.10;99.90;;;;;;5091275;28;20024;-61
2023/08/19 04:24:37;;;;;;;5.90;3.92;;;23.10;99.90;;;;;;5091317;28;20039;-61
2023/08/19 04:27:03;;;;;;;4.40;4.00;;;23.10;99.90;;;;;;5090975;28;20055;-60
2023/08/19 04:29:32;;;;;;;4.90;4.40;;;23.10;99.90;;;;;;5091303;28;20036;-60
2023/08/19 04:31:59;;;;;;;5.55;4.18;;;23.00;99.90;;;;;;5095590;28;20052;-61
2023/08/19 04:34:25;;;;;;;5.65;4.07;;;23.00;99.90;;;;;;5095249;28;20032;-61
2023/08/19 04:36:51;;;;;;;5.35;3.80;;;23.00;99.90;;;;;;5095031;28;20071;-61
2023/08/19 04:39:16;;;;;;;5.65;3.88;;;23.30;99.90;;;;;;5094929;28;20052;-60
2023/08/19 04:41:42;;;;;;;4.65;3.75;;;23.50;99.90;;;;;;5094920;28;20032;-61
2023/08/19 04:44:08;;;;;;;4.20;3.75;;;23.50;99.90;;;;;;5076525;28;20089;-60
2023/08/19 04:46:33;;;;;;;4.00;3.60;;;23.60;99.90;;;;;;5095257;28;20107;-61
2023/08/19 04:48:59;;;;;;;6.28;4.07;;;23.90;99.90;;;;;;5094935;28;20024;-60
2023/08/19 04:51:25;;;;;;;5.55;4.18;;;23.80;99.90;;;;;;5094721;28;20031;-61
2023/08/19 04:53:50;;;;;;;4.70;4.30;;;23.60;99.90;;;;;;5094981;28;20035;-61
2023/08/19 04:56:16;;;;;;;6.00;4.43;;;23.80;99.90;;;;;;5094507;28;20069;-60
2023/08/19 04:58:41;;;;;;;4.88;4.15;;;23.90;99.90;;;;;;5076423;28;20066;-61
2023/08/19 05:01:07;;;;;;;5.30;4.13;;;23.80;99.90;;;;;;5094557;28;20038;-60
2023/08/19 05:03:33;;;;;;;5.47;4.18;;;23.80;99.90;;;;;;5076366;28;20070;-60
2023/08/19 05:05:58;;;;;;;4.50;4.10;;;23.80;99.90;;;;;;5094946;28;20027;-60
2023/08/19 05:08:24;;;;;;;4.75;4.00;;;23.80;99.90;;;;;;5094584;28;20024;-61
2023/08/19 05:10:50;;;;;;;5.15;3.95;;;23.70;99.90;;;;;;5093895;28;20039;-60
2023/08/19 05:13:15;;;;;;;5.68;4.50;;;23.70;99.90;;;;;;5094424;28;20031;-60
2023/08/19 05:15:41;;;;;;;5.53;4.80;;;23.60;99.90;;;;;;5094404;28;20024;-61
2023/08/19 05:18:07;;;;;;;5.18;4.40;;;23.40;99.90;;;;;;5094629;28;20486;-61
2023/08/19 05:20:32;;;;;;;6.95;4.68;;;23.20;99.90;;;;;;5094143;28;20498;-61
2023/08/19 05:22:58;;;;;;;5.57;4.40;;;23.00;99.90;;;;;;5094308;28;20550;-61
2023/08/19 05:25:24;;;;;;;4.90;4.40;;;22.90;99.90;;;;;;5075616;28;20054;-60
2023/08/19 05:27:49;;;;;;;4.40;4.00;;;22.90;99.90;;;;;;5094202;28;20113;-60
2023/08/19 05:30:15;;;;;;;5.30;4.30;;;22.80;99.90;;;;;;5093955;28;20043;-61
2023/08/19 05:32:40;;;;;;;5.45;4.43;;;22.70;99.90;;;;;;5075856;28;20506;-60
2023/08/19 05:35:07;;;;;;;7.07;4.53;;;22.70;99.90;;;;;;5094023;28;20022;-61
2023/08/19 05:37:32;;;;;;;5.63;4.47;;;22.70;99.90;;;;;;5094213;28;20111;-61
2023/08/19 05:39:58;;;;;;;6.72;4.38;;;22.80;99.90;;;;;;5093451;28;20115;-61
2023/08/19 05:42:24;;;;;;;4.38;3.80;;;22.90;99.90;;;;;;5092493;28;20381;-60
2023/08/19 05:44:50;;;;;;;5.90;4.28;;;22.90;99.90;;;;;;5093806;28;20107;-61
2023/08/19 05:47:15;;;;;;;7.00;4.35;;;22.90;99.90;;;;;;5093822;28;20480;-61
2023/08/19 05:49:41;;;;;;;5.57;4.07;;;22.90;99.90;;;;;;5093472;28;20063;-61
2023/08/19 05:52:07;;;;;;;6.78;4.15;;;22.90;99.90;;;;;;5094034;28;20024;-61
2023/08/19 05:54:32;;;;;;;5.20;3.92;;;22.90;99.90;;;;;;5093308;28;20511;-61
2023/08/19 05:56:58;;;;;;;4.88;4.00;;;23.00;99.90;;;;;;5093497;28;20030;-61
2023/08/19 05:59:24;;;;;;;6.32;3.83;;;23.30;99.90;;;;;;5093510;28;20115;-61
2023/08/19 06:01:49;;;;;;;4.60;3.80;;;23.40;99.90;;;;;;5093426;28;20438;-61
2023/08/19 06:04:15;;;;;;;4.57;3.60;;;23.50;99.90;;;;;;5093718;28;20553;-61
2023/08/19 06:06:41;;;;;;;4.85;3.63;;;23.70;99.90;;;;;;5093299;28;20499;-60
2023/08/19 06:09:08;;;;;;;3.90;3.50;;;23.80;99.90;;;;;;5092774;28;20024;-61
2023/08/19 06:11:34;;;;;;;4.82;3.60;;;24.00;99.90;;;;;;5093110;28;20495;-61
2023/08/19 06:13:59;;;;;;;4.55;3.63;;;24.00;99.90;;;;;;5093643;28;20020;-60
2023/08/19 06:16:25;;;;;;;5.68;3.50;;;24.00;99.90;;;;;;5093123;28;20407;-60
2023/08/19 06:18:51;;;;;;;6.00;3.55;;;24.10;99.90;;;;;;5092962;28;20520;-60
2023/08/19 06:21:17;;;;;;;4.35;3.30;;;24.10;99.90;;;;;;5093135;28;20031;-61
2023/08/19 06:23:43;;;;;;;5.00;3.60;;;24.10;99.90;;;;;;5092669;28;20595;-60
2023/08/19 06:26:08;;;;;;;4.07;3.60;;;24.20;99.90;;;;;;5092941;28;20119;-60
2023/08/19 06:28:34;;;;;;;4.07;3.67;;;24.20;99.90;;;;;;5093309;28;20235;-60
2023/08/19 06:31:00;;;;;;;4.95;3.53;;;24.20;99.90;;;;;;5092657;28;20131;-61
2023/08/19 06:33:26;;;;;;;6.20;3.47;;;24.10;99.90;;;;;;5093035;28;20024;-61
2023/08/19 06:35:56;;;;;;;3.90;3.50;;;23.90;99.90;;;;;;5092723;28;20115;-62
2023/08/19 06:38:27;;;;;;;3.47;3.10;;;23.80;99.90;;;;;;5092421;28;20024;-61
2023/08/19 06:41:00;;;;;;;5.80;3.30;;;23.60;99.90;;;;;;5092633;28;20036;-60
2023/08/19 06:43:26;;;;;;;5.10;3.30;;;23.60;99.90;;;;;;5092716;28;20020;-61
2023/08/19 06:45:55;;;;;;;4.03;3.22;;;23.50;99.90;;;;;;5092601;28;20123;-61
2023/08/19 06:48:25;;;;;;;6.40;3.95;;;23.50;99.90;;;;;;5092519;28;20436;-61
2023/08/19 06:50:52;;;;;;;4.55;3.30;;;23.50;99.90;;;;;;5092638;28;20036;-60
2023/08/19 06:53:18;;;;;;;5.03;3.15;;;23.50;99.90;;;;;;5091744;28;20444;-61
2023/08/19 06:55:53;;;;;;;3.70;2.97;;;23.50;99.90;;;;;;5092508;28;20096;-61
2023/08/19 06:58:25;;;;;;;4.97;3.10;;;23.50;99.90;;;;;;5092646;28;20023;-61
2023/08/19 07:00:59;;;;;;;6.43;3.00;;;23.60;99.90;;;;;;5092533;28;20020;-61
2023/08/19 07:03:27;;;;;;;6.03;3.28;;;23.60;99.90;;;;;;5092285;28;20731;-61
2023/08/19 07:05:55;;;;;;;7.28;3.50;;;23.70;99.90;;;;;;5092655;28;20068;-60
2023/08/19 07:08:22;;;;;;;4.45;3.08;;;23.80;99.90;;;;;;5091696;28;20477;-61
2023/08/19 07:10:48;;;;;;;6.07;3.30;;;23.80;99.90;;;;;;5092097;28;20039;-60
2023/08/19 07:13:14;;;;;;;5.40;3.20;;;23.80;99.90;;;;;;5092127;28;20392;-60
2023/08/19 07:15:46;;;;;;;4.75;3.30;;;23.90;99.90;;;;;;5092217;28;20484;-60
2023/08/19 07:18:18;;;;;;;4.63;3.50;;;24.20;99.90;;;;;;5092184;28;20341;-60
2023/08/19 07:20:44;;;;;;;6.32;3.47;;;24.40;99.90;;;;;;5092067;28;20034;-61
2023/08/19 07:23:12;;;;;;;4.13;3.10;;;24.60;99.90;;;;;;5091427;28;20515;-61
2023/08/19 07:25:39;;;;;;;5.00;3.40;;;24.70;99.90;;;;;;5091757;28;20136;-61
2023/08/19 07:28:06;;;;;;;3.88;3.08;;;24.80;99.90;;;;;;5091706;28;20048;-61
2023/08/19 07:30:32;;;;;;;6.03;3.33;;;24.80;99.90;;;;;;5092311;28;20479;-60
2023/08/19 07:32:59;;;;;;;4.70;3.33;;;24.80;99.90;;;;;;5091557;28;20067;-61
2023/08/19 07:35:25;;;;;;;4.78;3.50;;;24.90;99.90;;;;;;5091667;28;20036;-60
2023/08/19 07:37:51;;;;;;;5.03;3.33;;;24.80;99.90;;;;;;5091462;28;20028;-60
2023/08/19 07:40:17;;;;;;;5.28;3.10;;;25.00;99.90;;;;;;5092044;28;20066;-61
2023/08/19 07:42:42;;;;;;;4.93;3.17;;;25.10;99.90;;;;;;5091525;28;20461;-61
2023/08/19 07:45:09;;;;;;;4.68;3.00;;;25.10;99.90;;;;;;5091506;28;20023;-61
2023/08/19 07:47:35;;;;;;;6.75;3.17;;;25.20;99.90;;;;;;5091506;28;20099;-61
2023/08/19 07:50:02;;;;;;;5.47;3.30;;;25.30;99.90;;;;;;5091469;28;20093;-61
2023/08/19 07:52:27;;;;;;;4.55;2.92;;;25.40;99.90;;;;;;5091094;28;20028;-61
2023/08/19 07:54:53;;;;;;;5.53;3.25;;;25.30;99.90;;;;;;5091503;28;20504;-61
2023/08/19 07:57:19;;;;;;;6.43;3.10;;;25.20;99.90;;;;;;5091721;28;20485;-61
2023/08/19 07:59:45;;;;;;;3.53;2.83;;;25.00;99.90;;;;;;5091385;28;20035;-61
2023/08/19 08:02:10;;;;;;;4.35;2.67;;;25.10;99.90;;;;;;5091269;28;20028;-61
2023/08/19 08:04:36;;;;;;;5.93;3.13;;;25.10;99.90;;;;;;5090929;28;20058;-60
2023/08/19 08:07:03;;;;;;;5.75;2.90;;;24.90;99.90;;;;;;5090886;28;20032;-61
2023/08/19 08:09:28;;;;;;;5.95;3.03;;;24.80;99.90;;;;;;5091088;28;20480;-60
2023/08/19 08:11:54;;;;;;;5.70;3.10;;;24.70;99.90;;;;;;5091358;28;20053;-61
2023/08/19 08:14:19;;;;;;;5.97;3.30;;;24.70;99.90;;;;;;5091270;28;20024;-61
2023/08/19 08:16:45;;;;;;;6.90;3.20;;;24.80;99.90;;;;;;5091445;28;20400;-61
2023/08/19 08:19:11;;;;;;;4.45;2.95;;;24.80;99.90;;;;;;5091027;28;20024;-61
2023/08/19 08:21:36;;;;;;;5.60;2.90;;;24.80;99.90;;;;;;5091149;28;20035;-60
2023/08/19 08:24:03;;;;;;;6.47;3.30;;;24.80;99.90;;;;;;5073023;28;20034;-61
2023/08/19 08:26:29;;;;;;;6.15;2.90;;;24.90;99.90;;;;;;5091010;28;20052;-61
2023/08/19 08:28:54;;;;;;;6.10;2.80;;;24.90;99.90;;;;;;5091064;28;20047;-61
2023/08/19 08:31:20;;;;;;;6.07;2.88;;;24.90;99.90;;;;;;5091252;28;20234;-61
2023/08/19 08:33:46;;;;;;;3.72;2.40;;;24.90;99.90;;;;;;5090827;28;20028;-61
2023/08/19 08:36:12;;;;;;;5.43;2.53;;;25.00;99.90;;;;;;5072991;28;20028;-60
2023/08/19 08:38:38;;;;;;;5.15;2.70;;;25.20;99.90;;;;;;5091439;28;20076;-61
2023/08/19 08:41:06;;;;;;;5.57;2.80;;;25.40;99.90;;;;;;5091022;28;20021;-60
2023/08/19 08:43:33;;;;;;;4.72;2.78;;;25.50;99.90;;;;;;5091001;28;20400;-61
2023/08/19 08:46:00;;;;;;;6.18;2.90;;;25.60;99.90;;;;;;5091283;28;20107;-60
2023/08/19 08:48:31;;;;;;;6.53;2.70;;;25.60;99.90;;;;;;5090556;28;20081;-61
2023/08/19 08:50:58;;;;;;;6.93;2.92;;;25.70;99.90;;;;;;5091025;28;20040;-60
2023/08/19 08:53:27;;;;;;;4.93;2.85;;;25.70;99.90;;;;;;5090781;28;20024;-61
2023/08/19 08:55:54;;;;;;;6.03;3.15;;;25.90;99.90;;;;;;5091010;28;20035;-61
2023/08/19 08:58:20;;;;;;;5.07;3.00;;;26.00;99.90;;;;;;5090774;28;20054;-61
2023/08/19 09:00:48;;;;;;;4.68;2.95;;;25.90;99.90;;;;;;5091071;28;20035;-61
2023/08/19 09:03:19;;;;;;;6.22;2.70;;;26.00;99.90;;;;;;5090615;28;20028;-61
2023/08/19 09:05:48;;;;;;;4.57;2.60;;;25.90;99.90;;;;;;5090715;28;20032;-61
2023/08/19 09:08:17;;;;;;;4.47;2.42;;;26.00;99.90;;;;;;5090830;28;20024;-61
2023/08/19 09:10:46;;;;;;;5.55;2.70;;;26.10;99.90;;;;;;5090570;28;20044;-60
2023/08/19 09:13:16;;;;;;;5.72;2.70;;;26.10;99.90;;;;;;5090776;28;20034;-61
2023/08/19 09:15:42;;;;;;;5.43;2.80;;;26.10;99.90;;;;;;5091488;28;20736;-61
2023/08/19 09:18:08;;;;;;;5.50;2.83;;;26.00;99.90;;;;;;5093899;28;20032;-61
2023/08/19 09:20:34;;;;;;;5.00;2.85;;;26.00;99.90;;;;;;5094600;28;20493;-61
2023/08/19 09:23:07;;;;;;;5.32;3.00;;;25.90;99.90;;;;;;5076001;28;20402;-60
2023/08/19 09:25:33;;;;;;;4.13;2.65;;;25.70;99.90;;;;;;5094085;28;20036;-61
2023/08/19 09:27:59;;;;;;;7.80;3.10;;;25.70;99.90;;;;;;5094227;28;20085;-61
2023/08/19 09:30:32;;;;;;;5.50;2.92;;;25.70;99.90;;;;;;5093868;28;20485;-61
2023/08/19 09:32:59;;;;;;;9.65;2.90;;;25.70;99.90;;;;;;5094103;28;20012;-60
2023/08/19 09:35:25;;;;;;;4.20;2.70;;;25.70;99.90;;;;;;5093941;28;20035;-61
2023/08/19 09:37:51;;;;;;;4.65;2.75;;;25.70;99.90;;;;;;5093948;28;20028;-61
2023/08/19 09:40:21;;;;;;;4.45;2.55;;;25.70;99.90;;;;;;5093953;28;20035;-61
2023/08/19 09:42:48;;;;;;;4.80;2.33;;;25.80;99.90;;;;;;5093873;28;20373;-61
2023/08/19 09:45:19;;;;;;;5.72;2.40;;;25.70;99.90;;;;;;5093823;28;20051;-61
2023/08/19 09:47:50;;;;;;;5.43;2.72;;;25.80;99.90;;;;;;5093870;28;20442;-61
2023/08/19 09:50:18;;;;;;;5.78;2.45;;;25.90;99.90;;;;;;5093480;28;20051;-61
2023/08/19 09:52:56;;;;;;;3.35;2.20;;;25.90;99.90;;;;;;5093662;28;20020;-61
2023/08/19 09:55:32;;;;;;;4.25;2.42;;;26.00;99.90;;;;;;5093719;28;20033;-61
2023/08/19 09:57:58;;;;;;;5.47;2.45;;;26.00;99.90;;;;;;5093880;28;20522;-61
2023/08/19 10:00:24;;;;;;;5.65;2.60;;;26.20;99.90;;;;;;5093361;28;20031;-61
2023/08/19 10:02:50;;;;;;;5.82;2.60;;;26.50;99.90;;;;;;5093160;28;20028;-61
2023/08/19 10:05:16;;;;;;;4.93;2.40;;;26.50;99.90;;;;;;5093522;28;20035;-61
2023/08/19 10:08:06;;;;;;;4.80;2.40;;;26.70;99.90;;;;;;5093814;28;20115;-61
2023/08/19 10:10:36;;;;;;;5.03;2.25;;;26.90;99.90;;;;;;5093329;28;20046;-60
2023/08/19 10:13:04;;;;;;;6.53;2.30;;;27.00;99.90;;;;;;5093053;28;20028;-60
2023/08/19 10:15:32;;;;;;;5.40;2.42;;;27.00;99.90;;;;;;5093160;28;20028;-61
2023/08/19 10:18:03;;;;;;;4.88;2.40;;;26.90;99.90;;;;;;5093248;28;20028;-61
2023/08/19 10:20:32;;;;;;;6.28;2.65;;;27.10;99.90;;;;;;5092976;28;20392;-61
2023/08/19 10:23:00;;;;;;;5.10;2.47;;;27.00;99.90;;;;;;5093081;28;20118;-61
2023/08/19 10:25:27;;;;;;;5.03;2.53;;;27.10;99.90;;;;;;5092836;28;20420;-61
2023/08/19 10:28:04;;;;;;;6.30;2.53;;;27.10;99.90;;;;;;5092577;28;20515;-61
2023/08/19 10:30:33;;;;;;;4.88;2.17;;;27.20;99.90;;;;;;5092702;28;20396;-61
2023/08/19 10:33:32;;;;;;;6.68;2.60;;;27.20;99.90;;;;;;5092900;28;20032;-61
2023/08/19 10:36:00;;;;;;;5.13;2.25;;;27.20;99.90;;;;;;5010534;28;20038;-61
2023/08/19 10:38:41;;;;;;;3.53;2.00;;;27.30;99.90;;;;;;5010588;28;20026;-61
2023/08/19 10:41:38;;;;;;;4.60;2.13;;;27.40;99.90;;;;;;5010858;28;20036;-61
2023/08/19 10:44:08;;;;;;;5.45;2.67;;;27.40;99.90;;;;;;5010435;28;20026;-60
2023/08/19 10:46:36;;;;;;;5.95;2.58;;;27.40;99.90;;;;;;5010517;28;20218;-61
2023/08/19 10:49:06;;;;;;;4.70;2.40;;;27.40;99.90;;;;;;5010334;28;20375;-61
2023/08/19 10:52:05;;;;;;;6.38;2.33;;;27.10;99.90;;;;;;5010369;28;20041;-61
2023/08/19 10:54:40;;;;;;;4.75;2.08;;;27.00;99.90;;;;;;4971329;28;20125;-61
2023/08/19 10:57:10;;;;;;;5.53;1.95;;;27.10;99.90;;;;;;4971524;28;20044;-61
2023/08/19 10:59:37;;;;;;;6.25;2.40;;;27.20;99.90;;;;;;4970801;28;20454;-60
2023/08/19 11:02:04;;;;;;;6.35;3.90;;;27.20;99.90;;;;;;4971177;28;20034;-60
2023/08/19 11:04:31;;;;;;;7.13;4.78;;;27.10;99.90;;;;;;4971112;28;20027;-61
2023/08/19 11:06:57;;;;;;;4.70;2.58;;;27.20;99.90;;;;;;4971394;28;20039;-61
2023/08/19 11:09:25;;;;;;;7.18;2.30;;;27.10;99.90;;;;;;4970946;28;20531;-61
2023/08/19 11:11:51;;;;;;;5.10;2.40;;;27.20;99.90;;;;;;4974325;28;20064;-61
2023/08/19 11:14:17;;;;;;;6.13;2.50;;;27.10;99.90;;;;;;4990211;28;20026;-61
2023/08/19 11:16:54;;;;;;;5.88;2.00;;;27.10;99.90;;;;;;4990164;28;20034;-61
2023/08/19 11:19:20;;;;;;;3.88;2.00;;;27.10;99.90;;;;;;4990111;28;20434;-61
2023/08/19 11:21:46;;;;;;;4.85;2.30;;;27.10;99.90;;;;;;4990285;28;20066;-61
2023/08/19 11:24:12;;;;;;;5.15;2.15;;;27.20;99.90;;;;;;4990105;28;20046;-61
2023/08/19 11:26:39;;;;;;;6.35;2.28;;;27.70;99.90;;;;;;4989788;28;20051;-60
2023/08/19 11:29:06;;;;;;;4.28;2.00;;;27.80;99.90;;;;;;4997596;28;20652;-61
2023/08/19 11:31:36;;;;;;;5.25;2.30;;;27.80;99.90;;;;;;5071601;28;20051;-61
2023/08/19 11:34:12;;;;;;;5.07;2.45;;;28.00;99.90;;;;;;5071602;28;20028;-61
2023/08/19 11:36:39;;;;;;;6.45;2.00;;;28.00;99.90;;;;;;5071924;28;20497;-61
2023/08/19 11:39:07;;;;;;;5.22;2.35;;;27.90;99.90;;;;;;5071355;28;20020;-61
2023/08/19 11:41:33;;;;;;;5.82;2.20;;;28.30;99.90;;;;;;5071341;28;20405;-61
2023/08/19 11:44:02;;;;;;;6.07;2.47;;;28.40;99.90;;;;;;5071154;28;20074;-61
2023/08/19 11:46:29;;;;;;;5.22;2.30;;;28.40;99.90;;;;;;5071350;28;20029;-61
2023/08/19 11:48:57;;;;;;;4.38;2.28;;;28.40;99.90;;;;;;5071266;28;20052;-61
2023/08/19 11:51:23;;;;;;;5.25;2.05;;;28.50;99.90;;;;;;5071175;28;20040;-61
2023/08/19 11:53:51;;;;;;;5.43;2.35;;;28.70;99.90;;;;;;5071888;28;20384;-61
2023/08/19 11:56:16;;;;;;;4.25;2.13;;;28.80;99.90;;;;;;5071131;28;20028;-61
2023/08/19 11:58:52;;;;;;;7.03;2.63;;;28.70;99.90;;;;;;5070973;28;20033;-61
2023/08/19 12:01:20;;;;;;;5.25;2.30;;;28.80;99.90;;;;;;5071200;28;20055;-61
2023/08/19 12:03:47;;;;;;;5.55;2.15;;;29.00;99.90;;;;;;5071319;28;20021;-61
2023/08/19 12:06:14;;;;;;;4.55;2.30;;;29.10;99.90;;;;;;5071146;28;20090;-61
2023/08/19 12:08:41;;;;;;;6.07;2.65;;;29.20;99.90;;;;;;5071035;28;20020;-61
2023/08/19 12:11:08;;;;;;;3.85;2.30;;;29.20;99.90;;;;;;5071054;28;20071;-61
2023/08/19 12:13:34;;;;;;;4.65;2.30;;;28.90;99.90;;;;;;5070653;28;20284;-61
2023/08/19 12:15:59;;;;;;;6.25;2.50;;;28.80;99.90;;;;;;5090616;28;20035;-61
2023/08/19 12:18:25;;;;;;;4.38;2.30;;;28.60;99.90;;;;;;5091263;28;20013;-61
2023/08/19 12:20:52;;;;;;;5.20;2.30;;;28.50;99.90;;;;;;5091105;28;20062;-61
2023/08/19 12:23:18;;;;;;;4.38;2.08;;;28.60;99.90;;;;;;5091239;28;20025;-61
2023/08/19 12:25:54;;;;;;;5.18;2.20;;;28.70;99.90;;;;;;5090934;28;20237;-61
2023/08/19 12:28:20;;;;;;;4.65;2.33;;;28.90;99.90;;;;;;5091556;28;20031;-61
2023/08/19 12:30:46;;;;;;;7.00;2.10;;;28.80;99.90;;;;;;5090962;28;20036;-61
2023/08/19 12:33:17;;;;;;;5.70;2.30;;;28.90;99.90;;;;;;5091182;28;20073;-61
2023/08/19 12:35:46;;;;;;;5.50;2.25;;;29.00;99.90;;;;;;5091110;28;20105;-60
2023/08/19 12:38:16;;;;;;;6.80;2.50;;;29.00;99.90;;;;;;5091231;28;20076;-61
2023/08/19 12:40:43;;;;;;;6.10;2.17;;;29.20;99.90;;;;;;5090971;28;20039;-60
2023/08/19 12:43:08;;;;;;;6.07;2.15;;;29.10;99.90;;;;;;5091068;28;20009;-61
2023/08/19 12:45:34;;;;;;;4.65;2.55;;;29.20;99.90;;;;;;5072944;28;20489;-61
2023/08/19 12:48:00;;;;;;;5.50;2.08;;;29.20;99.90;;;;;;5091063;28;20020;-61